Time;durP1;ratioP1;P1;durP2;ratioP2;P2;SDS_P1;SDS_P2;PMS_P1;PMS_P2;Temp;Humidity;BMP_temperature;BMP_pressure;BME280_temperature;BME280_humidity;BME280_pressure;Samples;Min_cycle;Max_cycle;Signal;HPM_P1;HPM_P2
2021/12/11 00:00:44;;;;;;;1.52;0.73;;;;;;;0.62;100.00;94414.22;5072063;28;24418;-73
2021/12/11 00:03:16;;;;;;;1.83;0.80;;;;;;;0.60;100.00;94417.75;5072021;28;24471;-73
2021/12/11 00:05:45;;;;;;;1.83;0.90;;;;;;;0.59;100.00;94422.00;5071364;28;24450;-73
2021/12/11 00:08:16;;;;;;;2.50;0.80;;;;;;;0.61;100.00;94422.78;5071438;28;24488;-74
2021/12/11 00:10:49;;;;;;;2.05;0.95;;;;;;;0.65;100.00;94419.19;5071623;28;24426;-73
2021/12/11 00:13:21;;;;;;;1.92;1.05;;;;;;;0.67;100.00;94426.78;5071852;28;24424;-74
2021/12/11 00:15:48;;;;;;;3.47;0.90;;;;;;;0.70;100.00;94426.59;5071556;28;24823;-74
2021/12/11 00:18:20;;;;;;;2.28;1.02;;;;;;;0.72;100.00;94432.47;5071393;28;24437;-74
2021/12/11 00:20:52;;;;;;;2.65;0.80;;;;;;;0.69;100.00;94433.44;5071542;28;24422;-74
2021/12/11 00:23:21;;;;;;;1.90;0.93;;;;;;;0.71;100.00;94435.94;5071315;28;24422;-74
2021/12/11 00:25:49;;;;;;;2.33;0.68;;;;;;;0.70;100.00;94435.09;5071318;28;24519;-74
2021/12/11 00:28:16;;;;;;;1.27;0.57;;;;;;;0.73;100.00;94447.69;5071442;28;24526;-73
2021/12/11 00:30:44;;;;;;;2.13;0.98;;;;;;;0.77;100.00;94448.38;5071249;28;24955;-73
2021/12/11 00:33:15;;;;;;;1.30;0.80;;;;;;;0.73;100.00;94464.69;5071300;28;24768;-74
2021/12/11 00:35:42;;;;;;;1.17;0.77;;;;;;;0.65;100.00;94465.03;5070636;28;24480;-74
2021/12/11 00:38:11;;;;;;;1.15;0.52;;;;;;;0.64;100.00;94473.59;5071223;28;24496;-74
2021/12/11 00:40:39;;;;;;;1.55;0.50;;;;;;;0.67;100.00;94477.75;5071253;28;24422;-74
2021/12/11 00:43:12;;;;;;;1.13;0.43;;;;;;;0.67;100.00;94482.84;5070604;28;24422;-74
2021/12/11 00:45:40;;;;;;;0.50;0.40;;;;;;;0.67;100.00;94481.09;5069814;28;24450;-74
2021/12/11 00:48:10;;;;;;;0.93;0.38;;;;;;;0.65;100.00;94485.44;5066477;28;24438;-74
2021/12/11 00:50:39;;;;;;;0.90;0.50;;;;;;;0.61;100.00;94500.94;5065081;28;24438;-73
2021/12/11 00:53:13;;;;;;;0.85;0.40;;;;;;;0.66;100.00;94499.81;5070983;28;24823;-74
2021/12/11 00:55:41;;;;;;;0.88;0.52;;;;;;;0.66;100.00;94494.72;5070692;28;24488;-74
2021/12/11 00:58:12;;;;;;;1.00;0.43;;;;;;;0.64;100.00;94500.81;5070893;28;24476;-74
2021/12/11 01:00:43;;;;;;;0.97;0.40;;;;;;;0.75;100.00;94523.25;5070929;28;24980;-74
2021/12/11 01:03:11;;;;;;;0.50;0.40;;;;;;;0.75;100.00;94523.25;5071154;28;24818;-74
2021/12/11 01:05:42;;;;;;;1.17;0.60;;;;;;;0.70;100.00;94526.84;5070573;28;24449;-74
2021/12/11 01:08:16;;;;;;;0.73;0.50;;;;;;;0.64;100.00;94533.94;5070801;28;24530;-74
2021/12/11 01:10:43;;;;;;;0.60;0.30;;;;;;;0.67;100.00;94538.91;5070720;28;24434;-74
2021/12/11 01:13:15;;;;;;;0.40;0.30;;;;;;;0.68;100.00;94541.34;5070592;28;24423;-74
2021/12/11 01:15:46;;;;;;;0.80;0.50;;;;;;;0.66;100.00;94548.22;5070438;28;24425;-74
2021/12/11 01:18:23;;;;;;;0.77;0.50;;;;;;;0.64;100.00;94550.03;5070315;28;24542;-74
2021/12/11 01:20:57;;;;;;;0.63;0.50;;;;;;;0.65;100.00;94554.22;5070717;28;24904;-74
2021/12/11 01:23:35;;;;;;;1.20;0.70;;;;;;;0.63;100.00;94558.59;5070608;28;24423;-74
2021/12/11 01:26:03;;;;;;;0.85;0.50;;;;;;;0.64;100.00;94564.50;5070455;28;24450;-74
2021/12/11 01:28:31;;;;;;;0.90;0.60;;;;;;;0.62;100.00;94572.19;5070523;28;24438;-73
2021/12/11 01:31:00;;;;;;;1.60;0.70;;;;;;;0.65;100.00;94572.06;5070369;28;24429;-74
2021/12/11 01:33:27;;;;;;;0.80;0.65;;;;;;;0.62;100.00;94576.47;5070528;28;24430;-74
2021/12/11 01:35:54;;;;;;;1.40;0.55;;;;;;;0.62;100.00;94576.47;5070029;28;24935;-73
2021/12/11 01:38:23;;;;;;;0.55;0.40;;;;;;;0.69;100.00;94591.41;5070129;28;24430;-74
2021/12/11 01:40:53;;;;;;;1.33;0.60;;;;;;;0.64;100.00;94595.91;5070498;28;24785;-74
2021/12/11 01:43:22;;;;;;;2.77;0.50;;;;;;;0.66;100.00;94594.09;5070275;28;24982;-74
2021/12/11 01:45:54;;;;;;;0.75;0.47;;;;;;;0.69;100.00;94608.44;5069959;28;24507;-74
2021/12/11 01:48:25;;;;;;;0.70;0.43;;;;;;;0.77;100.00;94616.56;5070123;28;24434;-74
2021/12/11 01:50:56;;;;;;;0.68;0.50;;;;;;;0.78;100.00;94618.25;5070398;28;24427;-74
2021/12/11 01:53:27;;;;;;;0.90;0.50;;;;;;;0.78;100.00;94625.91;5070227;28;24484;-74
2021/12/11 01:55:58;;;;;;;1.10;0.70;;;;;;;0.68;100.00;94630.53;5071128;28;24430;-74
2021/12/11 01:58:30;;;;;;;1.60;1.17;;;;;;;0.71;100.00;94640.63;5068203;28;24442;-73
2021/12/11 02:01:03;;;;;;;1.70;0.87;;;;;;;0.75;100.00;94637.94;5073456;28;25001;-74
2021/12/11 02:03:32;;;;;;;0.88;0.55;;;;;;;0.76;100.00;94639.59;5073986;28;24990;-73
2021/12/11 02:05:59;;;;;;;1.10;0.60;;;;;;;0.78;100.00;94645.44;5073874;28;24449;-74
2021/12/11 02:08:29;;;;;;;0.90;0.40;;;;;;;0.83;100.00;94653.72;5074047;28;24427;-74
2021/12/11 02:10:58;;;;;;;0.55;0.40;;;;;;;0.83;100.00;94651.19;5074149;28;24419;-74
2021/12/11 02:13:37;;;;;;;0.45;0.32;;;;;;;0.78;100.00;94659.03;5073923;28;24426;-74
2021/12/11 02:16:08;;;;;;;0.70;0.43;;;;;;;0.79;100.00;94664.94;5073514;28;24435;-74
2021/12/11 02:18:43;;;;;;;0.70;0.40;;;;;;;0.76;100.00;94671.00;5073565;28;25018;-73
2021/12/11 02:21:13;;;;;;;0.93;0.60;;;;;;;0.77;100.00;94674.38;5074180;28;24425;-73
2021/12/11 02:23:43;;;;;;;0.80;0.70;;;;;;;0.73;100.00;94682.13;5073836;28;24784;-73
2021/12/11 02:26:13;;;;;;;1.58;0.70;;;;;;;0.72;100.00;94695.78;5073191;28;24446;-74
2021/12/11 02:28:44;;;;;;;1.13;0.60;;;;;;;0.68;100.00;94695.97;5074075;28;24434;-74
2021/12/11 02:31:16;;;;;;;1.17;0.57;;;;;;;0.72;100.00;94690.69;5073683;28;24415;-73
2021/12/11 02:33:47;;;;;;;1.30;0.50;;;;;;;0.70;100.00;94704.38;5073701;28;24414;-73
2021/12/11 02:36:18;;;;;;;0.88;0.43;;;;;;;0.67;100.00;94712.16;5073336;28;24427;-73
2021/12/11 02:38:50;;;;;;;0.57;0.50;;;;;;;0.67;100.00;94710.44;5073286;28;24526;-73
2021/12/11 02:41:21;;;;;;;0.63;0.30;;;;;;;0.61;100.00;94725.16;5073632;28;24415;-74
2021/12/11 02:43:54;;;;;;;2.25;0.40;;;;;;;0.57;100.00;94739.72;5073495;28;24423;-74
2021/12/11 02:46:24;;;;;;;0.60;0.40;;;;;;;0.55;100.00;94736.41;5073080;28;24446;-73
2021/12/11 02:48:56;;;;;;;0.32;0.32;;;;;;;0.49;100.00;94741.75;5073181;28;24465;-73
2021/12/11 02:51:30;;;;;;;0.80;0.40;;;;;;;0.57;100.00;94751.66;5073643;28;24772;-73
2021/12/11 02:54:01;;;;;;;0.95;0.52;;;;;;;0.67;100.00;94742.75;5073502;28;24423;-73
2021/12/11 02:56:32;;;;;;;0.80;0.40;;;;;;;0.60;100.00;94751.53;5072997;28;24415;-74
2021/12/11 02:59:09;;;;;;;0.45;0.40;;;;;;;0.56;100.00;94755.91;5073140;28;24435;-74
2021/12/11 03:01:43;;;;;;;0.73;0.40;;;;;;;0.48;100.00;94763.00;5073172;28;24857;-73
2021/12/11 03:04:18;;;;;;;0.52;0.30;;;;;;;0.45;100.00;94769.06;5073280;28;24430;-73
2021/12/11 03:06:47;;;;;;;0.60;0.40;;;;;;;0.44;100.00;94771.66;5071925;28;25060;-73
2021/12/11 03:09:18;;;;;;;0.40;0.30;;;;;;;0.40;100.00;94777.78;5073164;28;24427;-73
2021/12/11 03:11:45;;;;;;;0.70;0.30;;;;;;;0.41;100.00;94780.28;5073006;28;24414;-73
2021/12/11 03:14:14;;;;;;;0.80;0.20;;;;;;;0.32;100.00;94783.16;5072632;28;24431;-73
2021/12/11 03:16:43;;;;;;;0.25;0.20;;;;;;;0.30;100.00;94795.16;5072354;28;24426;-73
2021/12/11 03:19:15;;;;;;;0.30;0.20;;;;;;;0.21;100.00;94803.13;5073391;28;24438;-76
2021/12/11 03:21:42;;;;;;;0.30;0.30;;;;;;;0.21;100.00;94805.66;5072992;28;24444;-75
2021/12/11 03:24:10;;;;;;;0.10;0.10;;;;;;;0.13;100.00;94805.97;5072689;28;24437;-75
2021/12/11 03:26:40;;;;;;;0.10;0.10;;;;;;;0.12;100.00;94817.03;5072150;28;24442;-75
2021/12/11 03:29:07;;;;;;;0.45;0.20;;;;;;;0.16;100.00;94816.03;5072713;28;24415;-75
2021/12/11 03:31:36;;;;;;;0.30;0.20;;;;;;;0.11;100.00;94823.03;5072698;28;24430;-75
2021/12/11 03:34:04;;;;;;;0.20;0.20;;;;;;;0.05;100.00;94830.88;5072534;28;24508;-76
2021/12/11 03:36:33;;;;;;;0.10;0.10;;;;;;;-0.02;100.00;94842.16;5072232;28;24434;-76
2021/12/11 03:39:05;;;;;;;0.10;0.10;;;;;;;-0.10;100.00;94845.00;5072152;28;24437;-75
2021/12/11 03:41:32;;;;;;;0.30;0.20;;;;;;;-0.06;100.00;94846.53;5072607;28;24815;-75
2021/12/11 03:44:00;;;;;;;1.50;0.30;;;;;;;-0.11;100.00;94862.84;5072390;28;24445;-75
2021/12/11 03:46:27;;;;;;;0.30;0.20;;;;;;;-0.04;100.00;94861.75;5071828;28;25033;-75
2021/12/11 03:48:57;;;;;;;0.28;0.28;;;;;;;-0.14;100.00;94868.06;5071971;28;24987;-75
2021/12/11 03:51:28;;;;;;;0.50;0.30;;;;;;;-0.10;100.00;94867.91;5072104;28;24442;-74
2021/12/11 03:53:55;;;;;;;0.52;0.38;;;;;;;-0.12;100.00;94877.28;5072372;28;24537;-75
2021/12/11 03:56:22;;;;;;;0.47;0.38;;;;;;;-0.10;100.00;94882.34;5071940;28;24417;-75
2021/12/11 03:58:51;;;;;;;0.33;0.33;;;;;;;-0.05;100.00;94875.38;5072077;28;24430;-76
2021/12/11 04:01:26;;;;;;;0.50;0.45;;;;;;;-0.09;100.00;94886.53;5071987;28;24496;-76
2021/12/11 04:03:56;;;;;;;0.68;0.43;;;;;;;-0.11;100.00;94891.69;5072198;28;24526;-75
2021/12/11 04:06:23;;;;;;;0.53;0.40;;;;;;;-0.12;100.00;94894.28;5071471;28;24417;-75
2021/12/11 04:08:51;;;;;;;1.00;0.50;;;;;;;-0.14;100.00;94898.59;5072130;28;24418;-76
2021/12/11 04:11:21;;;;;;;0.13;0.13;;;;;;;-0.10;100.00;94898.44;5071842;28;24563;-74
2021/12/11 04:13:50;;;;;;;0.47;0.30;;;;;;;-0.13;100.00;94906.19;5071815;28;24464;-76
2021/12/11 04:16:18;;;;;;;0.20;0.20;;;;;;;-0.13;100.00;94910.44;5071750;28;24426;-76
2021/12/11 04:18:45;;;;;;;0.40;0.40;;;;;;;-0.10;100.00;94923.91;5070223;28;24446;-75
2021/12/11 04:21:13;;;;;;;0.30;0.30;;;;;;;-0.10;100.00;94933.25;5071807;28;24427;-75
2021/12/11 04:23:41;;;;;;;0.40;0.30;;;;;;;-0.09;100.00;94937.44;5071641;28;24468;-75
2021/12/11 04:26:08;;;;;;;0.40;0.30;;;;;;;-0.10;100.00;94944.25;5071245;28;24426;-76
2021/12/11 04:28:39;;;;;;;0.57;0.30;;;;;;;-0.12;100.00;94946.00;5071265;28;24431;-73
2021/12/11 04:31:11;;;;;;;0.68;0.45;;;;;;;-0.09;100.00;94950.16;5071277;28;24477;-73
2021/12/11 04:33:42;;;;;;;0.60;0.30;;;;;;;-0.06;100.00;94961.09;5071681;28;24418;-73
2021/12/11 04:36:12;;;;;;;0.30;0.30;;;;;;;-0.06;100.00;94961.09;5071029;28;24970;-74
2021/12/11 04:38:40;;;;;;;0.80;0.38;;;;;;;-0.10;100.00;94966.34;5071162;28;24960;-73
2021/12/11 04:41:08;;;;;;;0.35;0.30;;;;;;;-0.13;100.00;94971.53;5071191;28;24458;-73
2021/12/11 04:43:36;;;;;;;0.40;0.28;;;;;;;-0.13;100.00;94969.81;5070923;28;24496;-73
2021/12/11 04:46:07;;;;;;;0.68;0.35;;;;;;;-0.22;100.00;94972.69;5070965;28;24480;-73
2021/12/11 04:48:45;;;;;;;0.63;0.43;;;;;;;-0.15;100.00;94988.53;5070785;28;25025;-73
2021/12/11 04:51:21;;;;;;;1.07;0.53;;;;;;;-0.10;100.00;94986.69;5071270;28;24514;-75
2021/12/11 04:53:59;;;;;;;1.00;0.60;;;;;;;-0.14;100.00;94978.34;5071054;28;24521;-73
2021/12/11 04:56:58;;;;;;;0.40;0.40;;;;;;;-0.10;100.00;94989.25;5070515;28;24963;-73
2021/12/11 04:59:39;;;;;;;1.25;0.60;;;;;;;-0.17;100.00;95003.88;5071162;28;24767;-73
2021/12/11 05:02:28;;;;;;;0.38;0.38;;;;;;;-0.17;100.00;95003.88;5070837;28;24425;-74
2021/12/11 05:05:07;;;;;;;0.73;0.55;;;;;;;-0.18;100.00;95006.50;5070567;28;24970;-73
2021/12/11 05:07:42;;;;;;;2.42;0.40;;;;;;;-0.21;100.00;95022.69;5063690;28;24550;-73
2021/12/11 05:10:16;;;;;;;0.70;0.60;;;;;;;-0.20;100.00;95024.34;5061131;28;24431;-74
2021/12/11 05:12:45;;;;;;;0.50;0.50;;;;;;;-0.21;100.00;95030.31;5070094;28;24426;-74
2021/12/11 05:15:15;;;;;;;0.47;0.40;;;;;;;-0.22;100.00;95036.28;5067459;28;24439;-74
2021/12/11 05:17:42;;;;;;;0.50;0.40;;;;;;;-0.22;100.00;95040.53;5070412;28;24438;-73
2021/12/11 05:20:11;;;;;;;0.80;0.60;;;;;;;-0.24;100.00;95045.69;5070720;28;24460;-73
2021/12/11 05:22:39;;;;;;;0.32;0.32;;;;;;;-0.22;100.00;95049.03;5070283;28;24414;-73
2021/12/11 05:25:07;;;;;;;0.70;0.65;;;;;;;-0.21;100.00;95057.47;5070116;28;24415;-73
2021/12/11 05:27:34;;;;;;;0.68;0.60;;;;;;;-0.15;100.00;95059.81;5070139;28;24457;-74
2021/12/11 05:30:02;;;;;;;0.70;0.70;;;;;;;-0.20;100.00;95071.88;5070536;28;24417;-74
2021/12/11 05:32:29;;;;;;;0.90;0.77;;;;;;;-0.22;100.00;95078.69;5070512;28;24414;-73
2021/12/11 05:34:57;;;;;;;0.93;0.70;;;;;;;-0.18;100.00;95083.66;5070415;28;24430;-73
2021/12/11 05:37:25;;;;;;;0.80;0.77;;;;;;;-0.13;100.00;95094.53;5070068;28;24446;-76
2021/12/11 05:39:54;;;;;;;0.60;0.60;;;;;;;-0.26;100.00;95094.09;5070050;28;24438;-76
2021/12/11 05:42:21;;;;;;;1.50;0.80;;;;;;;-0.27;100.00;95102.56;5070425;28;24419;-76
2021/12/11 05:44:47;;;;;;;1.00;0.90;;;;;;;-0.25;100.00;95102.56;5070250;28;24480;-73
2021/12/11 05:47:14;;;;;;;2.00;1.00;;;;;;;-0.25;100.00;95112.72;5069697;28;25021;-75
2021/12/11 05:49:43;;;;;;;1.17;1.00;;;;;;;-0.28;100.00;95113.66;5070329;28;24476;-73
2021/12/11 05:52:11;;;;;;;1.50;1.17;;;;;;;-0.26;100.00;95116.13;5070137;28;24426;-73
2021/12/11 05:54:40;;;;;;;1.02;0.93;;;;;;;-0.29;100.00;95118.78;5069777;28;24418;-73
2021/12/11 05:57:11;;;;;;;1.35;0.95;;;;;;;-0.27;100.00;95128.03;5069943;28;24426;-73
2021/12/11 05:59:39;;;;;;;0.70;0.70;;;;;;;-0.18;100.00;95132.03;5070271;28;24513;-73
2021/12/11 06:02:10;;;;;;;1.57;0.80;;;;;;;-0.21;100.00;95133.81;5070193;28;24540;-73
2021/12/11 06:04:40;;;;;;;1.08;0.90;;;;;;;-0.26;100.00;95144.97;5070215;28;24788;-72
2021/12/11 06:07:08;;;;;;;1.23;0.90;;;;;;;-0.24;100.00;95144.91;5069379;28;24461;-73
2021/12/11 06:09:36;;;;;;;0.80;0.80;;;;;;;-0.25;100.00;95151.72;5070131;28;24513;-74
2021/12/11 06:12:06;;;;;;;0.70;0.60;;;;;;;-0.24;100.00;95165.28;5070193;28;24410;-74
2021/12/11 06:14:35;;;;;;;0.80;0.80;;;;;;;-0.20;100.00;95171.94;5070729;28;24425;-75
2021/12/11 06:17:05;;;;;;;0.80;0.70;;;;;;;-0.25;100.00;95166.16;5069502;28;24793;-75
2021/12/11 06:19:32;;;;;;;0.70;0.70;;;;;;;-0.22;100.00;95171.16;5069862;28;24517;-73
2021/12/11 06:22:00;;;;;;;0.60;0.52;;;;;;;-0.18;100.00;95182.09;5070046;28;25005;-73
2021/12/11 06:24:27;;;;;;;0.95;0.70;;;;;;;-0.19;100.00;95185.50;5070333;28;24460;-73
2021/12/11 06:26:56;;;;;;;0.90;0.80;;;;;;;-0.19;100.00;95188.03;5069679;28;24418;-73
2021/12/11 06:29:22;;;;;;;0.77;0.75;;;;;;;-0.22;100.00;95198.31;5069826;28;24429;-73
2021/12/11 06:31:52;;;;;;;1.45;0.63;;;;;;;-0.17;100.00;95199.84;5069877;28;24430;-73
2021/12/11 06:34:19;;;;;;;0.70;0.70;;;;;;;-0.21;100.00;95205.09;5069748;28;24842;-74
2021/12/11 06:36:47;;;;;;;0.85;0.80;;;;;;;-0.23;100.00;95206.81;5069546;28;24423;-73
2021/12/11 06:39:17;;;;;;;0.70;0.63;;;;;;;-0.15;100.00;95212.50;5069803;28;24437;-73
2021/12/11 06:41:49;;;;;;;0.60;0.60;;;;;;;-0.19;100.00;95221.94;5070560;28;24974;-73
2021/12/11 06:44:15;;;;;;;1.00;0.90;;;;;;;-0.16;100.00;95218.50;5073489;28;24438;-73
2021/12/11 06:46:42;;;;;;;1.00;0.90;;;;;;;-0.20;100.00;95225.38;5072928;28;24418;-74
2021/12/11 06:49:10;;;;;;;1.25;1.15;;;;;;;-0.16;100.00;95239.69;5073560;28;24537;-73
2021/12/11 06:51:37;;;;;;;2.17;1.08;;;;;;;-0.16;100.00;95241.41;5073164;28;24423;-73
2021/12/11 06:54:06;;;;;;;1.27;1.17;;;;;;;-0.14;100.00;95234.56;5070539;28;24467;-73
2021/12/11 06:56:32;;;;;;;1.00;0.90;;;;;;;-0.20;100.00;95248.28;5072702;28;24488;-73
2021/12/11 06:59:00;;;;;;;1.30;1.20;;;;;;;-0.20;100.00;95265.28;5068310;28;24439;-73
2021/12/11 07:01:28;;;;;;;3.20;1.60;;;;;;;-0.14;100.00;95254.94;5072825;28;24427;-73
2021/12/11 07:03:56;;;;;;;1.63;1.52;;;;;;;-0.18;100.00;95264.38;5073067;28;24967;-73
2021/12/11 07:06:25;;;;;;;2.17;1.70;;;;;;;-0.18;100.00;95279.63;5072710;28;24455;-74
2021/12/11 07:08:53;;;;;;;1.73;1.63;;;;;;;-0.13;100.00;95284.59;5066268;28;24481;-73
2021/12/11 07:11:21;;;;;;;2.10;1.63;;;;;;;-0.14;100.00;95283.75;5069794;28;24430;-73
2021/12/11 07:13:47;;;;;;;2.10;1.80;;;;;;;-0.15;100.00;95284.63;5066771;28;24496;-73
2021/12/11 07:16:14;;;;;;;1.70;1.60;;;;;;;-0.13;100.00;95294.75;5072416;28;24468;-73
2021/12/11 07:18:41;;;;;;;2.17;1.97;;;;;;;-0.11;100.00;95308.25;5071936;28;25039;-73
2021/12/11 07:21:08;;;;;;;2.08;1.90;;;;;;;-0.08;100.00;95321.75;5072725;28;24465;-74
2021/12/11 07:23:37;;;;;;;2.20;2.00;;;;;;;-0.08;100.00;95319.19;5072495;28;24468;-75
2021/12/11 07:26:12;;;;;;;3.42;3.10;;;;;;;-0.01;100.00;95333.41;5072138;28;25015;-75
2021/12/11 07:28:39;;;;;;;2.97;2.67;;;;;;;0.07;100.00;95337.47;5072246;28;24956;-68
2021/12/11 07:31:06;;;;;;;2.38;2.00;;;;;;;0.08;100.00;95337.44;5072495;28;24425;-75
2021/12/11 07:33:33;;;;;;;3.40;2.58;;;;;;;0.00;100.00;95347.00;5072359;28;24427;-75
2021/12/11 07:35:59;;;;;;;3.08;2.40;;;;;;;0.13;100.00;95353.41;5071975;28;24423;-75
2021/12/11 07:38:27;;;;;;;4.38;2.38;;;;;;;0.03;100.00;95358.78;5072055;28;24836;-75
2021/12/11 07:40:59;;;;;;;2.30;2.10;;;;;;;-0.06;100.00;95367.53;5072068;28;24534;-74
2021/12/11 07:43:28;;;;;;;2.30;2.10;;;;;;;0.00;100.00;95377.56;5072471;28;24468;-78
2021/12/11 07:45:56;;;;;;;2.40;2.20;;;;;;;-0.05;100.00;95385.28;5071959;28;24423;-76
2021/12/11 07:48:23;;;;;;;2.75;2.50;;;;;;;-0.04;100.00;95388.66;5071952;28;24503;-75
2021/12/11 07:50:49;;;;;;;2.63;2.42;;;;;;;-0.08;100.00;95400.66;5071814;28;24935;-75
2021/12/11 07:53:18;;;;;;;3.03;2.72;;;;;;;-0.10;100.00;95402.41;5071961;28;24426;-74
2021/12/11 07:55:45;;;;;;;3.20;2.90;;;;;;;-0.10;100.00;95414.31;5071617;28;24418;-75
2021/12/11 07:58:13;;;;;;;3.15;2.85;;;;;;;-0.10;100.00;95419.41;5071651;28;24414;-75
2021/12/11 08:00:43;;;;;;;5.72;3.05;;;;;;;-0.07;100.00;95425.25;5071524;28;24979;-75
2021/12/11 08:03:12;;;;;;;2.90;2.70;;;;;;;-0.04;100.00;95429.41;5071721;28;24464;-76
2021/12/11 08:05:40;;;;;;;3.83;3.25;;;;;;;-0.08;100.00;95436.28;5070975;28;24422;-75
2021/12/11 08:08:09;;;;;;;3.40;3.10;;;;;;;-0.12;100.00;95449.16;5071259;28;24516;-75
2021/12/11 08:10:39;;;;;;;4.95;3.20;;;;;;;-0.15;100.00;95442.44;5071326;28;24430;-75
2021/12/11 08:13:06;;;;;;;3.85;3.53;;;;;;;-0.13;100.00;95444.94;5071687;28;24947;-75
2021/12/11 08:15:34;;;;;;;3.90;3.50;;;;;;;-0.13;100.00;95457.66;5071414;28;24841;-75
2021/12/11 08:18:01;;;;;;;4.63;3.50;;;;;;;-0.15;100.00;95467.03;5071394;28;24529;-74
2021/12/11 08:20:31;;;;;;;4.07;3.67;;;;;;;-0.11;100.00;95473.72;5071281;28;24867;-75
2021/12/11 08:22:58;;;;;;;4.65;3.90;;;;;;;-0.10;100.00;95476.25;5071900;28;24796;-75
2021/12/11 08:25:28;;;;;;;6.15;3.90;;;;;;;-0.14;100.00;95482.28;5071182;28;24496;-75
2021/12/11 08:27:56;;;;;;;5.22;4.72;;;;;;;-0.08;100.00;95482.09;5071361;28;24451;-74
2021/12/11 08:30:25;;;;;;;4.30;3.90;;;;;;;-0.11;100.00;95489.00;5071336;28;24418;-75
2021/12/11 08:32:53;;;;;;;5.63;4.70;;;;;;;-0.12;100.00;95488.16;5071581;28;24431;-75
2021/12/11 08:35:20;;;;;;;5.37;3.90;;;;;;;-0.11;100.00;95494.94;5071229;28;24456;-75
2021/12/11 08:37:49;;;;;;;3.92;3.63;;;;;;;-0.12;100.00;95492.41;5070795;28;24430;-75
2021/12/11 08:40:21;;;;;;;4.55;4.15;;;;;;;-0.09;100.00;95505.06;5071006;28;24460;-75
2021/12/11 08:42:48;;;;;;;4.05;3.67;;;;;;;-0.11;100.00;95502.59;5070872;28;24974;-75
2021/12/11 08:45:22;;;;;;;3.90;3.60;;;;;;;-0.11;100.00;95505.13;5070674;28;24858;-75
2021/12/11 08:47:51;;;;;;;5.43;4.07;;;;;;;0.02;100.00;95502.25;5071320;28;24488;-75
2021/12/11 08:50:22;;;;;;;5.25;4.40;;;;;;;0.01;100.00;95515.88;5071064;28;24418;-75
2021/12/11 08:52:54;;;;;;;6.88;4.18;;;;;;;-0.02;100.00;95520.16;5070292;28;24966;-75
2021/12/11 08:55:25;;;;;;;4.68;4.28;;;;;;;0.07;100.00;95518.22;5070482;28;24480;-75
2021/12/11 08:57:53;;;;;;;5.03;4.60;;;;;;;0.13;100.00;95529.09;5070612;28;24430;-74
2021/12/11 09:00:26;;;;;;;6.20;5.25;;;;;;;0.19;100.00;95535.75;5070866;28;24966;-75
2021/12/11 09:02:57;;;;;;;6.10;5.50;;;;;;;0.28;100.00;95543.16;5071048;28;24418;-74
2021/12/11 09:05:32;;;;;;;4.90;4.50;;;;;;;0.25;100.00;95553.41;5070073;28;24476;-75
2021/12/11 09:08:05;;;;;;;4.88;4.32;;;;;;;0.36;100.00;95553.13;5070325;28;24481;-74
2021/12/11 09:10:37;;;;;;;5.20;4.70;;;;;;;0.41;100.00;95552.16;5070688;28;24435;-75
2021/12/11 09:13:10;;;;;;;5.97;5.38;;;;;;;0.48;100.00;95553.66;5070913;28;24414;-75
2021/12/11 09:15:42;;;;;;;5.95;5.35;;;;;;;0.46;100.00;95563.03;5070469;28;24418;-74
2021/12/11 09:18:12;;;;;;;5.00;4.50;;;;;;;0.36;100.00;95569.25;5071477;28;24430;-74
2021/12/11 09:20:44;;;;;;;4.75;4.25;;;;;;;0.45;100.00;95573.28;5070368;28;24418;-74
2021/12/11 09:23:16;;;;;;;4.70;4.20;;;;;;;0.35;100.00;95572.69;5070750;28;24418;-74
2021/12/11 09:25:48;;;;;;;5.17;4.67;;;;;;;0.34;100.00;95582.94;5070401;28;24423;-74
2021/12/11 09:28:17;;;;;;;5.28;4.70;;;;;;;0.32;100.00;95597.41;5070359;28;24991;-74
2021/12/11 09:30:49;;;;;;;6.60;5.90;;;;;;;0.43;100.00;95590.31;5070392;28;24796;-74
2021/12/11 09:33:18;;;;;;;8.88;7.97;;;;;;;0.48;100.00;95599.53;5070265;28;24422;-74
2021/12/11 09:35:49;;;;;;;10.77;6.50;;;;;;;0.31;100.00;95603.38;5070226;28;24415;-74
2021/12/11 09:38:20;;;;;;;11.13;7.22;;;;;;;0.43;100.00;95610.69;5070507;28;24434;-76
2021/12/11 09:40:52;;;;;;;10.48;8.02;;;;;;;0.49;100.00;95610.56;5070229;28;25033;-74
2021/12/11 09:43:40;;;;;;;5.72;5.22;;;;;;;0.42;100.00;95614.13;5070241;28;24481;-75
2021/12/11 09:46:09;;;;;;;5.25;4.75;;;;;;;0.40;100.00;95629.44;5070230;28;24422;-75
2021/12/11 09:48:39;;;;;;;4.55;4.15;;;;;;;0.42;100.00;95626.88;5070189;28;24508;-75
2021/12/11 09:51:10;;;;;;;5.07;4.65;;;;;;;0.37;100.00;95626.13;5070172;28;24987;-75
2021/12/11 09:53:39;;;;;;;4.30;3.90;;;;;;;0.36;100.00;95632.09;5070186;28;24418;-75
2021/12/11 09:56:10;;;;;;;8.07;5.53;;;;;;;0.37;100.00;95633.78;5064354;28;25018;-75
2021/12/11 09:58:38;;;;;;;9.18;4.40;;;;;;;0.32;100.00;95638.16;5065648;28;24447;-75
2021/12/11 10:01:09;;;;;;;5.15;4.35;;;;;;;0.34;100.00;95646.63;5070161;28;24442;-74
2021/12/11 10:03:45;;;;;;;4.27;3.83;;;;;;;0.38;100.00;95648.22;5070151;28;24414;-75
2021/12/11 10:06:27;;;;;;;6.88;4.18;;;;;;;0.35;100.00;95649.09;5069829;28;24516;-75
2021/12/11 10:09:09;;;;;;;4.70;4.03;;;;;;;0.33;100.00;95645.75;5069608;28;24494;-75
2021/12/11 10:11:37;;;;;;;4.05;3.63;;;;;;;0.34;100.00;95659.34;5070260;28;24437;-75
2021/12/11 10:14:08;;;;;;;5.78;4.57;;;;;;;0.32;100.00;95658.53;5070547;28;24496;-75
2021/12/11 10:16:39;;;;;;;4.82;3.90;;;;;;;0.30;100.00;95655.19;5064913;28;24434;-75
2021/12/11 10:19:09;;;;;;;4.25;3.85;;;;;;;0.28;100.00;95660.31;5073485;28;24434;-74
2021/12/11 10:21:38;;;;;;;4.13;3.70;;;;;;;0.33;100.00;95661.03;5073100;28;24422;-75
2021/12/11 10:24:09;;;;;;;3.88;3.58;;;;;;;0.34;100.00;95660.19;5066854;28;25100;-75
2021/12/11 10:26:36;;;;;;;3.80;3.50;;;;;;;0.34;100.00;95672.09;5070253;28;24792;-75
2021/12/11 10:29:09;;;;;;;4.82;3.63;;;;;;;0.35;100.00;95671.22;5068973;28;24504;-74
2021/12/11 10:31:40;;;;;;;4.05;3.67;;;;;;;0.38;100.00;95677.06;5069403;28;24521;-75
2021/12/11 10:34:11;;;;;;;3.88;3.58;;;;;;;0.31;100.00;95675.53;5069927;28;24465;-75
2021/12/11 10:36:42;;;;;;;3.40;3.10;;;;;;;0.37;100.00;95679.63;5070501;28;24431;-75
2021/12/11 10:39:11;;;;;;;3.97;3.50;;;;;;;0.32;100.00;95684.00;5067877;28;25002;-74
2021/12/11 10:41:38;;;;;;;4.95;3.92;;;;;;;0.35;100.00;95689.88;5064546;28;24443;-75
2021/12/11 10:44:10;;;;;;;4.25;3.85;;;;;;;0.39;100.00;95700.81;5067616;28;24434;-75
2021/12/11 10:46:42;;;;;;;4.47;4.07;;;;;;;0.39;100.00;95699.09;5066535;28;24434;-75
2021/12/11 10:49:11;;;;;;;4.20;3.60;;;;;;;0.33;100.00;95701.78;5069031;28;24541;-75
2021/12/11 10:51:43;;;;;;;4.97;4.50;;;;;;;0.37;100.00;95702.56;5070216;28;24435;-74
2021/12/11 10:54:10;;;;;;;6.60;5.93;;;;;;;0.34;100.00;95700.09;5070122;28;24445;-75
2021/12/11 10:56:37;;;;;;;6.78;5.60;;;;;;;0.35;100.00;95705.16;5072520;28;24442;-75
2021/12/11 10:59:08;;;;;;;5.10;4.05;;;;;;;0.41;100.00;95706.72;5074574;28;24449;-78
2021/12/11 11:01:38;;;;;;;6.03;4.15;;;;;;;0.35;100.00;95704.31;5073901;28;24420;-77
2021/12/11 11:04:09;;;;;;;4.28;3.88;;;;;;;0.32;100.00;95710.31;5073761;28;24445;-77
2021/12/11 11:06:36;;;;;;;4.80;3.70;;;;;;;0.34;100.00;95708.59;5072056;28;24516;-75
2021/12/11 11:09:05;;;;;;;4.60;3.78;;;;;;;0.38;100.00;95707.63;5063141;28;24461;-77
2021/12/11 11:11:34;;;;;;;4.60;4.10;;;;;;;0.42;100.00;95716.03;5073224;28;24440;-78
2021/12/11 11:14:01;;;;;;;4.17;3.77;;;;;;;0.40;100.00;95722.88;5065116;28;24998;-74
2021/12/11 11:16:29;;;;;;;4.70;4.10;;;;;;;0.42;100.00;95718.59;5072450;28;24448;-76
2021/12/11 11:18:56;;;;;;;4.68;3.85;;;;;;;0.42;100.00;95721.97;5072441;28;24419;-76
2021/12/11 11:21:26;;;;;;;4.45;4.03;;;;;;;0.40;100.00;95720.31;5072816;28;24975;-76
2021/12/11 11:23:53;;;;;;;4.47;4.07;;;;;;;0.44;100.00;95734.66;5072626;28;24480;-76
2021/12/11 11:26:23;;;;;;;7.70;4.18;;;;;;;0.44;100.00;95732.13;5072553;28;24430;-76
2021/12/11 11:28:50;;;;;;;4.78;4.32;;;;;;;0.47;100.00;95734.59;5072013;28;24455;-76
2021/12/11 11:31:21;;;;;;;4.07;3.72;;;;;;;0.47;100.00;95740.53;5069567;28;24484;-75
2021/12/11 11:33:49;;;;;;;4.70;3.85;;;;;;;0.46;100.00;95740.56;5070643;28;24439;-76
2021/12/11 11:36:19;;;;;;;4.82;3.97;;;;;;;0.46;100.00;95743.94;5071942;28;24434;-76
2021/12/11 11:38:51;;;;;;;4.80;4.30;;;;;;;0.49;100.00;95755.78;5072317;28;24442;-76
2021/12/11 11:41:20;;;;;;;4.72;4.00;;;;;;;0.48;100.00;95757.50;5072557;28;24414;-75